Sunday, March 24, 2019, 8:24 PM EDT
Back to Local

KLCI, Laconia, Laconia Municipal Airport

Location: Laconia, NH, United States Lat: 43.567
Local Time: 8:24 PM EDT ( 0:24 GMT) Lon: -71.417
Time Zone: US/Eastern Elev: 544 ft

Show me the last for .
Show Coded

Time T Td Feel RH Dir Speed Gust Alt SLP Vis Weather Sky Remarks
2019-03-24 19:56 40 23 - 50 - Calm - 29.90 29.96 10 CLR 6-hr Min Temp (8pm): 39.9°F
6-hr Max Temp (8pm): 50.0°F
2019-03-24 18:56 45 21 44 38 220° 3 - 29.89 29.94 10 CLR None
2019-03-24 17:56 48 18 45 29 260° 7 - 29.88 29.94 10 CLR None
2019-03-24 16:56 48 16 42 27 250° 8 17 29.88 29.94 10 CLR None
2019-03-24 15:56 48 16 42 27 260° 14 - 29.89 29.95 10 CLR None
2019-03-24 14:56 50 17 44 26 250° 12 16 29.89 29.95 10 CLR None
2019-03-24 13:56 48 20 44 32 250° 9 - 29.92 29.97 10 CLR 6-hr Min Temp (2pm): 30.9°F
6-hr Max Temp (2pm): 48.0°F
2019-03-24 12:56 45 20 38 36 230° 17 - 29.94 30.00 10 CLR None
2019-03-24 11:56 44 18 36 34 250° 13 20 29.97 30.03 10 CLR None
2019-03-24 10:56 41 17 36 37 240° 8 - 29.99 30.05 10 CLR None
2019-03-24 09:56 36 18 28 47 230° 10 - 30.00 30.06 10 CLR None
2019-03-24 08:56 33 16 25 48 220° 9 - 30.00 30.06 10 CLR None
2019-03-24 07:56 31 17 23 55 240° 9 - 30.00 30.06 10 CLR 6-hr Min Temp (8am): 27.0°F
6-hr Max Temp (8am): 30.9°F
2019-03-24 06:56 28 15 19 57 260° 9 - 29.99 30.05 10 CLR None
2019-03-24 05:56 29 14 23 53 270° 6 - 29.99 30.04 10 CLR None
2019-03-24 04:56 28 14 22 55 240° 6 - 29.98 30.03 10 CLR None
2019-03-24 03:56 30 12 23 46 260° 7 - 29.96 30.01 10 CLR None
2019-03-24 02:56 29 13 19 50 250° 13 - 29.96 30.01 10 CLR None
2019-03-24 01:56 30 13 18 48 250° 10 20 29.96 30.01 10 CLR 6-hr Min Temp (2am): 30.0°F
6-hr Max Temp (2am): 32.0°F
2019-03-24 00:56 31 12 18 44 260° 14 21 29.94 29.99 10 CLR 24-hr Min Temp (1am): 30.0°F
24-hr Max Temp (1am): 37.0°F
2019-03-23 23:56 31 12 25 44 Variable 6 - 29.93 29.98 10 CLR None
2019-03-23 22:56 31 12 23 44 260° 9 - 29.92 29.98 10 CLR None
2019-03-23 21:56 31 14 17 48 260° 14 24 29.91 29.96 10 CLR None
2019-03-23 20:56 31 16 18 53 270° 14 23 29.90 29.95 10 CLR None

Support USWX by starting your Amazon purchase here.